Time,TemperatureF,DewpointF,PressureIn,WindDirection,WindDirectionDegrees,WindSpeedMPH,WindSpeedGustMPH,Humidity,HourlyPrecipIn,Conditions,Clouds,dailyrainin,SoftwareType,DateUTC
2014-02-21 00:12:00,42.0,35.0,29.67,WSW,257,13.0,23.0,75,0.01,,,0.14,,2014-02-21 05:12:00,
2014-02-21 00:22:00,42.0,35.0,29.67,WSW,257,13.0,23.0,75,0.01,,,0.14,,2014-02-21 05:22:00,
2014-02-21 00:34:00,42.0,35.0,29.67,WSW,257,13.0,23.0,75,0.01,,,0.14,,2014-02-21 05:34:00,
2014-02-21 01:42:00,39.0,32.0,29.71,West,271,3.0,11.0,77,0.00,,,0.14,,2014-02-21 06:42:00,
2014-02-21 01:52:00,39.0,32.0,29.72,WSW,256,3.0,11.0,77,0.00,,,0.14,,2014-02-21 06:52:00,
2014-02-21 02:11:00,38.0,32.0,29.72,WSW,253,3.0,11.0,79,0.00,,,0.14,,2014-02-21 07:11:00,
2014-02-21 02:22:00,38.0,32.0,29.72,WSW,253,3.0,11.0,79,0.00,,,0.14,,2014-02-21 07:22:00,
2014-02-21 02:42:00,38.0,32.0,29.74,SSW,208,3.0,6.0,80,0.00,,,0.14,,2014-02-21 07:42:00,
2014-02-21 02:53:00,38.0,32.0,29.74,SSW,208,3.0,6.0,80,0.00,,,0.14,,2014-02-21 07:53:00,
2014-02-21 03:11:00,37.0,31.0,29.74,SW,225,4.0,9.0,80,0.00,,,0.14,,2014-02-21 08:11:00,
2014-02-21 03:22:00,37.0,31.0,29.74,SW,225,4.0,9.0,80,0.00,,,0.14,,2014-02-21 08:22:00,
2014-02-21 03:42:00,37.0,31.0,29.73,SW,218,3.0,6.0,80,0.00,,,0.14,,2014-02-21 08:42:00,
2014-02-21 03:52:00,37.0,31.0,29.73,SW,218,3.0,6.0,80,0.00,,,0.14,,2014-02-21 08:52:00,
2014-02-21 04:22:00,36.0,30.0,29.73,SW,227,3.0,8.0,80,0.00,,,0.14,,2014-02-21 09:22:00,
2014-02-21 04:43:00,36.0,30.0,29.73,SW,232,4.0,8.0,80,0.00,,,0.14,,2014-02-21 09:43:00,
2014-02-21 04:53:00,36.0,30.0,29.74,SW,222,3.0,8.0,80,0.00,,,0.14,,2014-02-21 09:53:00,
2014-02-21 05:13:00,36.0,30.0,29.74,SW,229,3.0,8.0,79,0.00,,,0.14,,2014-02-21 10:13:00,
2014-02-21 05:23:00,36.0,30.0,29.74,SW,229,3.0,8.0,79,0.00,,,0.14,,2014-02-21 10:23:00,
2014-02-21 05:43:00,37.0,31.0,29.74,SW,233,3.0,10.0,78,0.00,,,0.13,,2014-02-21 10:43:00,
2014-02-21 05:53:00,36.0,30.0,29.74,SSW,192,6.0,10.0,78,0.00,,,0.13,,2014-02-21 10:53:00,
2014-02-21 06:12:00,37.0,30.0,29.74,SSW,206,6.0,11.0,77,0.00,,,0.13,,2014-02-21 11:12:00,
2014-02-21 06:22:00,37.0,30.0,29.74,SSW,206,6.0,11.0,77,0.00,,,0.13,,2014-02-21 11:22:00,
2014-02-21 06:42:00,37.0,30.0,29.74,SSW,208,6.0,15.0,76,0.00,,,0.13,,2014-02-21 11:42:00,
2014-02-21 06:52:00,37.0,30.0,29.75,WSW,243,7.0,16.0,76,0.00,,,0.13,,2014-02-21 11:52:00,
2014-02-21 07:22:00,37.0,30.0,29.76,SW,223,10.0,17.0,75,0.00,,,0.13,,2014-02-21 12:22:00,
2014-02-21 07:42:00,38.0,29.0,29.77,WSW,253,9.0,25.0,70,0.00,,,0.13,,2014-02-21 12:42:00,
2014-02-21 07:52:00,38.0,29.0,29.77,WSW,253,9.0,25.0,70,0.00,,,0.13,,2014-02-21 12:52:00,
2014-02-21 08:22:00,38.0,30.0,29.79,SW,231,11.0,25.0,72,0.00,,,0.13,,2014-02-21 13:22:00,
2014-02-21 08:42:00,38.0,29.0,29.80,WSW,258,17.0,21.0,69,0.00,,,0.13,,2014-02-21 13:42:00,
2014-02-21 08:52:00,38.0,28.0,29.81,WNW,303,10.0,23.0,68,0.00,,,0.13,,2014-02-21 13:52:00,
2014-02-21 09:11:00,38.0,28.0,29.82,WSW,253,17.0,23.0,68,0.00,,,0.13,,2014-02-21 14:11:00,
2014-02-21 09:22:00,38.0,28.0,29.82,WSW,253,17.0,23.0,68,0.00,,,0.13,,2014-02-21 14:22:00,
2014-02-21 09:42:00,38.0,28.0,29.83,West,270,12.0,22.0,66,0.00,,,0.13,,2014-02-21 14:42:00,
2014-02-21 09:53:00,38.0,28.0,29.83,West,266,8.0,22.0,67,0.00,,,0.13,,2014-02-21 14:53:00,
2014-02-21 10:22:00,39.0,27.0,29.84,WSW,251,10.0,23.0,63,0.00,,,0.13,,2014-02-21 15:22:00,
2014-02-21 10:43:00,40.0,27.0,29.85,WNW,289,16.0,23.0,60,0.00,,,0.13,,2014-02-21 15:43:00,
2014-02-21 10:53:00,40.0,27.0,29.85,West,276,9.0,23.0,60,0.00,,,0.13,,2014-02-21 15:53:00,
2014-02-21 11:13:00,40.0,27.0,29.85,WSW,249,12.0,23.0,59,0.00,,,0.13,,2014-02-21 16:13:00,
2014-02-21 11:23:00,40.0,27.0,29.85,WSW,249,12.0,23.0,59,0.00,,,0.13,,2014-02-21 16:23:00,
2014-02-21 11:53:00,43.0,26.0,29.88,SW,233,16.0,26.0,51,0.00,,,0.13,,2014-02-21 16:53:00,
2014-02-21 12:22:00,43.0,27.0,29.89,West,261,14.0,26.0,52,0.00,,,0.13,,2014-02-21 17:22:00,
2014-02-21 12:42:00,45.0,29.0,29.90,West,266,9.0,17.0,54,0.00,,,0.13,,2014-02-21 17:42:00,
2014-02-21 12:52:00,44.0,28.0,29.90,West,262,14.0,23.0,52,0.00,,,0.13,,2014-02-21 17:52:00,
2014-02-21 13:12:00,45.0,27.0,29.90,WSW,252,16.0,23.0,50,0.00,,,0.13,,2014-02-21 18:12:00,
2014-02-21 13:22:00,45.0,27.0,29.90,WSW,252,16.0,23.0,50,0.00,,,0.13,,2014-02-21 18:22:00,
2014-02-21 13:32:00,45.0,27.0,29.90,WSW,252,16.0,23.0,50,0.00,,,0.13,,2014-02-21 18:32:00,
2014-02-21 13:43:00,45.0,27.0,29.90,WSW,252,16.0,23.0,50,0.00,,,0.13,,2014-02-21 18:43:00,
2014-02-21 14:22:00,45.0,23.0,29.91,West,264,16.0,27.0,42,0.00,,,0.13,,2014-02-21 19:22:00,
2014-02-21 14:42:00,46.0,24.0,29.91,WSW,247,9.0,29.0,42,0.00,,,0.13,,2014-02-21 19:42:00,
2014-02-21 14:52:00,46.0,24.0,29.91,WSW,247,9.0,29.0,42,0.00,,,0.13,,2014-02-21 19:52:00,
2014-02-21 15:22:00,47.0,24.0,29.92,West,268,16.0,29.0,40,0.00,,,0.13,,2014-02-21 20:22:00,
2014-02-21 15:52:00,47.0,22.0,29.93,WSW,249,10.0,22.0,37,0.00,,,0.12,,2014-02-21 20:52:00,
2014-02-21 16:11:00,47.0,22.0,29.93,West,264,11.0,22.0,37,0.00,,,0.12,,2014-02-21 21:11:00,
2014-02-21 16:22:00,47.0,22.0,29.93,West,264,11.0,22.0,37,0.00,,,0.12,,2014-02-21 21:22:00,
2014-02-21 16:43:00,47.0,23.0,29.93,SW,218,4.0,17.0,38,0.00,,,0.11,,2014-02-21 21:43:00,
2014-02-21 16:53:00,47.0,21.0,29.94,WSW,256,4.0,20.0,36,0.00,,,0.11,,2014-02-21 21:53:00,
2014-02-21 17:23:00,47.0,23.0,29.94,SW,222,5.0,20.0,38,0.00,,,0.11,,2014-02-21 22:23:00,
2014-02-21 17:43:00,46.0,22.0,29.94,WSW,242,5.0,14.0,39,0.00,,,0.11,,2014-02-21 22:43:00,
2014-02-21 17:53:00,46.0,24.0,29.94,WSW,258,7.0,14.0,41,0.00,,,0.11,,2014-02-21 22:53:00,
2014-02-21 18:12:00,46.0,24.0,29.95,SW,228,6.0,14.0,42,0.00,,,0.11,,2014-02-21 23:12:00,
2014-02-21 18:22:00,46.0,24.0,29.95,SW,228,6.0,14.0,42,0.00,,,0.11,,2014-02-21 23:22:00,
2014-02-21 18:43:00,44.0,22.0,29.96,WSW,254,2.0,10.0,42,0.00,,,0.11,,2014-02-21 23:43:00,
2014-02-21 18:53:00,44.0,22.0,29.96,WSW,254,2.0,10.0,42,0.00,,,0.11,,2014-02-21 23:53:00,
2014-02-21 19:12:00,43.0,23.0,29.96,WSW,245,2.0,10.0,45,0.00,,,0.11,,2014-02-22 00:12:00,
2014-02-21 19:22:00,43.0,23.0,29.96,WSW,245,2.0,10.0,45,0.00,,,0.11,,2014-02-22 00:22:00,
2014-02-21 19:42:00,40.0,23.0,29.96,SSW,208,0.0,5.0,50,0.00,,,0.11,,2014-02-22 00:42:00,
2014-02-21 19:52:00,40.0,23.0,29.96,SSW,208,1.0,5.0,51,0.00,,,0.11,,2014-02-22 00:52:00,
2014-02-21 20:21:00,39.0,22.0,29.96,SSW,208,1.0,5.0,51,0.00,,,0.11,,2014-02-22 01:21:00,
2014-02-21 20:42:00,38.0,22.0,29.95,SSW,208,0.0,3.0,53,0.00,,,0.11,,2014-02-22 01:42:00,
2014-02-21 20:52:00,38.0,22.0,29.95,SSW,208,0.0,3.0,53,0.00,,,0.11,,2014-02-22 01:52:00,
2014-02-21 21:12:00,37.0,23.0,29.95,SSW,208,0.0,3.0,56,0.00,,,0.11,,2014-02-22 02:12:00,
2014-02-21 21:22:00,37.0,23.0,29.95,SSW,208,0.0,3.0,56,0.00,,,0.11,,2014-02-22 02:22:00,
2014-02-21 21:52:00,37.0,22.0,29.96,South,183,3.0,5.0,54,0.00,,,0.01,,2014-02-22 02:52:00,
2014-02-21 22:22:00,40.0,24.0,29.96,SSW,210,2.0,6.0,52,0.00,,,0.01,,2014-02-22 03:22:00,
2014-02-21 22:33:00,40.0,24.0,29.96,SSW,210,2.0,6.0,52,0.00,,,0.01,,2014-02-22 03:33:00,
2014-02-21 22:43:00,40.0,24.0,29.96,SSW,210,2.0,6.0,52,0.00,,,0.01,,2014-02-22 03:43:00,
2014-02-21 22:53:00,40.0,24.0,29.96,SSW,210,6.0,11.0,53,0.00,,,0.01,,2014-02-22 03:53:00,
2014-02-21 23:23:00,42.0,26.0,29.95,SSE,166,3.0,16.0,52,0.00,,,0.01,,2014-02-22 04:23:00,
2014-02-21 23:43:00,42.0,25.0,29.95,SW,228,3.0,11.0,50,0.00,,,0.00,,2014-02-22 04:43:00,
2014-02-21 23:52:00,42.0,25.0,29.95,SW,228,3.0,11.0,50,0.00,,,0.00,,2014-02-22 04:52:00,